Time;durP1;ratioP1;P1;durP2;ratioP2;P2;SDS_P1;SDS_P2;PMS_P1;PMS_P2;Temp;Humidity;BMP_temperature;BMP_pressure;BME280_temperature;BME280_humidity;BME280_pressure;Samples;Min_cycle;Max_cycle;Signal;HPM_P1;HPM_P2
2023/04/08 00:00:16;;;;;;;17.30;10.50;;;;;;;19.90;45.29;100485.86;108046;1256;69441;-66
2023/04/08 00:02:43;;;;;;;18.40;10.80;;;;;;;20.26;44.73;100486.19;108075;1253;73947;-66
2023/04/08 00:05:10;;;;;;;16.90;10.40;;;;;;;20.35;44.59;100487.35;108076;1254;62975;-65
2023/04/08 00:07:40;;;;;;;21.50;10.70;;;;;;;20.38;44.53;100484.45;108062;1254;61364;-66
2023/04/08 00:10:07;;;;;;;12.70;8.30;;;;;;;20.24;44.89;100485.60;108091;1253;60429;-67
2023/04/08 00:12:35;;;;;;;16.30;10.30;;;;;;;20.48;44.53;100485.88;108086;1253;70867;-64
2023/04/08 00:15:02;;;;;;;18.10;10.50;;;;;;;20.44;44.62;100486.65;108132;1257;74386;-65
2023/04/08 00:17:30;;;;;;;11.50;7.80;;;;;;;20.48;44.63;100485.71;108062;1253;62231;-66
2023/04/08 00:19:57;;;;;;;15.90;9.90;;;;;;;20.77;44.09;100482.65;108196;1253;61754;-64
2023/04/08 00:22:24;;;;;;;15.60;9.70;;;;;;;20.95;43.78;100481.33;108098;1255;74662;-60
2023/04/08 00:24:51;;;;;;;12.70;8.60;;;;;;;20.89;43.92;100475.39;108078;1255;70549;-61
2023/04/08 00:27:20;;;;;;;15.30;9.70;;;;;;;20.74;44.14;100476.45;108065;1255;73913;-63
2023/04/08 00:29:46;;;;;;;15.60;9.20;;;;;;;20.71;44.17;100476.85;108112;1255;62443;-67
2023/04/08 00:32:13;;;;;;;15.70;9.60;;;;;;;20.49;44.68;100469.38;108144;1254;60281;-66
2023/04/08 00:34:42;;;;;;;14.20;9.20;;;;;;;20.22;45.31;100470.44;108042;1257;73305;-66
2023/04/08 00:37:10;;;;;;;12.30;8.10;;;;;;;20.09;45.52;100474.39;108090;1256;71017;-66
2023/04/08 00:39:37;;;;;;;13.70;9.70;;;;;;;20.15;45.55;100474.30;108003;1255;74184;-66
2023/04/08 00:42:04;;;;;;;13.80;9.20;;;;;;;20.35;45.26;100474.84;108049;1254;63138;-66
2023/04/08 00:44:30;;;;;;;15.40;9.50;;;;;;;20.45;45.14;100471.80;108039;1254;61192;-66
2023/04/08 00:46:57;;;;;;;16.80;9.00;;;;;;;20.60;45.00;100469.31;107872;1260;73761;-66
2023/04/08 00:49:25;;;;;;;11.80;8.00;;;;;;;20.47;45.07;100467.23;107934;1255;71147;-66
2023/04/08 00:51:53;;;;;;;16.70;9.10;;;;;;;20.52;45.08;100465.10;107957;1258;71727;-67
2023/04/08 00:54:22;;;;;;;16.70;9.90;;;;;;;20.87;44.49;100462.86;108085;1253;62249;-65
2023/04/08 00:56:49;;;;;;;11.70;8.60;;;;;;;21.04;44.22;100459.05;108097;1257;60844;-65
2023/04/08 00:59:16;;;;;;;16.10;10.40;;;;;;;21.10;43.89;100459.53;108103;1254;74645;-66
2023/04/08 01:02:08;;;;;;;13.50;8.60;;;;;;;21.01;44.04;100459.79;108069;1257;70520;-67
2023/04/08 01:04:43;;;;;;;15.30;9.70;;;;;;;20.71;44.50;100459.18;108038;1254;73082;-66
2023/04/08 01:07:37;;;;;;;13.10;9.10;;;;;;;21.21;43.73;100455.11;108007;1258;61069;-66
2023/04/08 01:10:06;;;;;;;11.30;7.20;;;;;;;20.68;44.46;100460.50;108031;1254;61326;-66
2023/04/08 01:12:37;;;;;;;17.00;9.40;;;;;;;20.80;44.26;100458.23;107904;1254;74287;-66
2023/04/08 01:15:05;;;;;;;15.40;9.90;;;;;;;21.00;43.98;100462.05;107978;1256;71524;-66
2023/04/08 01:17:32;;;;;;;14.10;8.90;;;;;;;20.96;43.89;100458.04;108070;1254;72766;-67
2023/04/08 01:20:00;;;;;;;14.90;9.80;;;;;;;20.86;44.16;100455.64;107884;1253;62274;-66
2023/04/08 01:22:53;;;;;;;15.50;10.30;;;;;;;20.98;43.88;100457.02;108074;1257;60432;-66
2023/04/08 01:25:22;;;;;;;18.40;10.80;;;;;;;20.81;44.32;100461.51;108084;1254;72877;-66
2023/04/08 01:27:49;;;;;;;16.60;10.80;;;;;;;20.62;44.61;100462.56;108145;1256;68675;-65
2023/04/08 01:30:18;;;;;;;17.90;11.00;;;;;;;20.42;45.12;100465.76;107993;1259;72936;-66
2023/04/08 01:32:46;;;;;;;18.90;11.00;;;;;;;20.48;45.13;100468.89;108099;1254;62056;-66
2023/04/08 01:35:14;;;;;;;16.30;11.00;;;;;;;20.53;45.14;100466.08;108191;1253;60316;-67
2023/04/08 01:37:49;;;;;;;14.80;9.00;;;;;;;20.82;44.59;100466.81;108145;1257;74166;-66
2023/04/08 01:40:19;;;;;;;16.80;10.30;;;;;;;20.89;44.48;100465.73;108129;1260;70372;-66
2023/04/08 01:42:49;;;;;;;19.90;10.80;;;;;;;20.86;44.43;100464.91;108109;1253;71865;-67
2023/04/08 01:45:16;;;;;;;19.30;11.10;;;;;;;20.72;44.63;100464.33;107959;1254;62141;-67
2023/04/08 01:47:47;;;;;;;20.30;11.20;;;;;;;20.81;44.50;100463.33;108126;1254;61434;-66
2023/04/08 01:50:15;;;;;;;17.70;10.90;;;;;;;20.70;44.56;100468.59;108075;1253;73554;-66
2023/04/08 01:52:43;;;;;;;15.40;10.20;;;;;;;20.59;44.84;100470.24;108091;1254;71669;-64
2023/04/08 01:55:13;;;;;;;;;;;;;;;20.69;44.68;100465.59;107935;1256;72769;-66
2023/04/08 01:57:43;;;;;;;14.50;9.10;;;;;;;20.66;44.59;100461.06;107929;1254;63199;-67
2023/04/08 02:00:11;;;;;;;16.80;10.60;;;;;;;20.24;45.35;100463.35;107832;1254;60337;-67
2023/04/08 02:02:47;;;;;;;19.50;11.20;;;;;;;20.24;45.43;100459.23;107977;1254;75098;-66
2023/04/08 02:05:14;;;;;;;22.10;11.40;;;;;;;20.54;44.88;100460.27;107935;1260;71700;-63
2023/04/08 02:07:41;;;;;;;19.80;11.60;;;;;;;20.68;44.52;100465.33;108029;1253;72959;-67
2023/04/08 02:10:12;;;;;;;23.10;13.00;;;;;;;20.60;44.72;100463.38;108065;1256;63241;-65
2023/04/08 02:12:38;;;;;;;20.20;12.50;;;;;;;20.54;44.87;100467.75;108034;1254;60515;-66
2023/04/08 02:15:11;;;;;;;21.10;12.40;;;;;;;20.64;44.70;100469.14;108076;1256;73872;-67
2023/04/08 02:18:02;;;;;;;22.00;12.80;;;;;;;20.52;45.02;100473.58;108120;1253;69577;-66
2023/04/08 02:20:46;;;;;;;22.00;12.20;;;;;;;20.30;45.52;100470.05;108038;1256;71901;-67
2023/04/08 02:23:24;;;;;;;21.80;12.40;;;;;;;20.49;45.28;100470.65;108011;1254;62062;-66
2023/04/08 02:25:51;;;;;;;17.10;10.60;;;;;;;20.49;45.36;100465.08;107901;1255;60320;-65
2023/04/08 02:28:17;;;;;;;24.20;13.60;;;;;;;20.69;45.03;100464.36;107914;1254;74922;-65
2023/04/08 02:30:49;;;;;;;23.60;12.70;;;;;;;20.65;45.09;100464.52;107840;1255;71345;-66
2023/04/08 02:33:20;;;;;;;26.30;13.60;;;;;;;20.52;45.40;100463.23;107867;1255;73909;-65
2023/04/08 02:35:49;;;;;;;22.30;12.90;;;;;;;20.37;45.77;100460.46;107972;1254;62931;-66
2023/04/08 02:38:28;;;;;;;17.10;10.60;;;;;;;20.19;46.09;100459.95;108025;1254;61043;-66
2023/04/08 02:40:55;;;;;;;19.60;11.20;;;;;;;19.93;46.62;100463.27;108049;1254;74052;-65
2023/04/08 02:43:30;;;;;;;20.70;12.90;;;;;;;19.89;46.70;100466.40;108038;1254;71521;-66
2023/04/08 02:46:08;;;;;;;18.10;12.20;;;;;;;20.30;45.90;100464.15;108076;1253;72406;-65
2023/04/08 02:48:36;;;;;;;20.60;12.80;;;;;;;20.29;45.96;100466.14;107998;1254;63338;-66
2023/04/08 02:51:03;;;;;;;20.10;12.20;;;;;;;20.26;45.85;100472.63;108081;1255;61108;-64
2023/04/08 02:53:32;;;;;;;21.80;13.30;;;;;;;20.31;45.87;100474.98;108154;1253;75046;-66
2023/04/08 02:55:59;;;;;;;26.60;14.40;;;;;;;20.10;46.35;100477.39;108037;1254;69858;-66
2023/04/08 02:58:26;;;;;;;23.90;13.20;;;;;;;19.83;47.00;100475.34;108127;1257;72910;-66
2023/04/08 03:00:54;;;;;;;17.40;10.70;;;;;;;19.78;47.11;100481.24;108056;1254;63303;-66
2023/04/08 03:03:28;;;;;;;23.90;13.50;;;;;;;19.94;46.93;100479.73;108042;1254;61695;-65
2023/04/08 03:05:58;;;;;;;18.10;10.80;;;;;;;20.00;46.73;100475.70;108075;1254;75209;-66
2023/04/08 03:08:25;;;;;;;22.40;13.10;;;;;;;20.12;46.57;100478.09;108117;1254;69855;-65
2023/04/08 03:10:52;;;;;;;24.10;13.40;;;;;;;20.05;46.75;100478.92;108043;1254;72166;-66
2023/04/08 03:13:19;;;;;;;19.70;10.20;;;;;;;20.07;46.67;100477.03;108038;1255;63085;-65
2023/04/08 03:15:46;;;;;;;24.80;13.10;;;;;;;20.23;46.34;100479.99;108030;1255;61147;-66
2023/04/08 03:18:13;;;;;;;24.60;13.50;;;;;;;20.33;46.13;100484.24;108019;1257;60364;-65
2023/04/08 03:20:40;;;;;;;22.40;12.90;;;;;;;20.62;45.61;100482.14;108023;1254;71314;-66
2023/04/08 03:23:07;;;;;;;26.10;13.50;;;;;;;20.49;45.71;100480.99;107988;1257;73910;-66
2023/04/08 03:25:35;;;;;;;24.30;14.20;;;;;;;20.19;46.26;100484.56;107984;1254;61650;-67
2023/04/08 03:28:01;;;;;;;26.30;13.60;;;;;;;20.24;46.45;100486.14;108104;1254;60303;-66
2023/04/08 03:30:28;;;;;;;22.90;13.90;;;;;;;20.51;45.91;100480.81;108064;1254;74885;-65
2023/04/08 03:32:56;;;;;;;24.70;12.70;;;;;;;20.68;45.57;100478.16;108074;1254;70526;-66
2023/04/08 03:35:23;;;;;;;22.90;14.30;;;;;;;20.46;46.01;100474.95;107967;1257;73618;-66
2023/04/08 03:37:53;;;;;;;13.90;9.30;;;;;;;20.42;46.01;100470.08;108035;1255;62960;-65
2023/04/08 03:40:19;;;;;;;22.30;13.20;;;;;;;20.30;46.13;100472.67;108042;1255;61220;-66
2023/04/08 03:42:46;;;;;;;23.50;12.50;;;;;;;20.36;45.91;100475.16;108010;1257;74514;-67
2023/04/08 03:45:13;;;;;;;19.50;12.20;;;;;;;20.37;45.93;100476.67;108007;1254;71643;-66
2023/04/08 03:47:41;;;;;;;24.00;13.70;;;;;;;20.23;46.25;100478.73;108036;1254;73704;-66
2023/04/08 03:50:09;;;;;;;20.60;12.40;;;;;;;20.27;46.14;100482.75;108022;1254;62731;-66
2023/04/08 03:52:39;;;;;;;;;;;;;;;20.66;45.61;100487.05;108031;1254;59727;-67
2023/04/08 03:55:06;;;;;;;27.40;14.30;;;;;;;20.93;45.04;100489.38;108024;1257;74857;-66
2023/04/08 03:57:33;;;;;;;20.50;11.80;;;;;;;20.75;45.04;100487.63;108035;1254;69167;-67
2023/04/08 04:00:00;;;;;;;27.70;14.40;;;;;;;20.81;45.16;100491.65;108011;1257;73359;-66
2023/04/08 04:02:26;;;;;;;25.60;13.20;;;;;;;21.15;44.57;100491.83;108047;1253;60345;-66
2023/04/08 04:04:53;;;;;;;19.20;11.70;;;;;;;21.32;44.26;100491.42;108069;1253;60498;-66
2023/04/08 04:07:20;;;;;;;23.90;13.10;;;;;;;21.29;44.33;100491.83;108019;1253;73989;-66
2023/04/08 04:09:47;;;;;;;21.40;13.30;;;;;;;21.33;44.22;100492.59;108027;1253;70540;-67
2023/04/08 04:12:13;;;;;;;21.40;13.40;;;;;;;21.43;44.13;100490.59;108087;1253;60293;-66
2023/04/08 04:14:45;;;;;;;31.60;17.50;;;;;;;21.50;43.94;100492.00;107994;1254;62261;-66
2023/04/08 04:17:12;;;;;;;22.20;13.30;;;;;;;21.42;44.13;100494.58;108029;1254;61293;-66
2023/04/08 04:19:38;;;;;;;24.40;12.70;;;;;;;21.35;44.28;100493.34;108039;1254;73963;-67
2023/04/08 04:22:05;;;;;;;23.40;13.00;;;;;;;21.26;44.63;100497.95;108067;1254;71628;-65
2023/04/08 04:24:34;;;;;;;23.60;13.60;;;;;;;21.17;44.85;100502.77;108046;1257;72980;-66
2023/04/08 04:27:01;;;;;;;23.80;12.90;;;;;;;21.10;45.07;100503.77;108059;1254;61397;-65
2023/04/08 04:29:30;;;;;;;21.50;12.90;;;;;;;21.18;45.13;100504.79;108096;1254;60483;-65
2023/04/08 04:31:58;;;;;;;24.00;13.10;;;;;;;21.56;44.25;100508.35;108048;1254;72880;-67
2023/04/08 04:34:24;;;;;;;22.60;12.60;;;;;;;21.45;44.63;100508.31;108040;1253;68410;-66
2023/04/08 04:36:51;;;;;;;23.40;13.00;;;;;;;21.56;44.51;100511.08;108047;1254;72398;-66
2023/04/08 04:39:20;;;;;;;23.50;13.60;;;;;;;21.23;45.19;100511.74;108009;1254;63125;-65
2023/04/08 04:41:48;;;;;;;28.50;12.50;;;;;;;21.04;45.74;100511.59;108082;1254;61518;-67
2023/04/08 04:44:14;;;;;;;25.70;12.70;;;;;;;21.02;46.05;100512.44;108012;1254;73151;-65
2023/04/08 04:46:42;;;;;;;28.70;13.10;;;;;;;21.30;45.61;100509.27;108047;1253;71411;-65
2023/04/08 04:49:08;;;;;;;23.40;12.00;;;;;;;21.32;45.69;100519.63;108049;1253;72952;-66
2023/04/08 04:51:35;;;;;;;29.20;12.30;;;;;;;21.33;45.62;100521.92;108027;1253;60389;-67
2023/04/08 04:54:04;;;;;;;15.70;9.00;;;;;;;21.22;45.90;100524.45;107992;1253;61103;-66
2023/04/08 04:56:31;;;;;;;21.60;11.50;;;;;;;21.24;45.65;100531.48;108047;1254;74086;-65
2023/04/08 04:59:05;;;;;;;23.20;11.80;;;;;;;21.51;45.40;100528.75;108045;1254;70642;-66
2023/04/08 05:01:32;;;;;;;20.80;10.90;;;;;;;21.79;44.82;100530.02;108014;1253;74354;-66
2023/04/08 05:03:59;;;;;;;23.30;11.00;;;;;;;22.01;44.45;100530.21;108033;1254;62028;-66
2023/04/08 05:06:29;;;;;;;21.90;10.00;;;;;;;22.15;44.10;100534.15;108048;1253;61354;-66
2023/04/08 05:08:57;;;;;;;28.50;11.50;;;;;;;22.29;43.84;100538.64;108010;1256;74852;-65
2023/04/08 05:11:23;;;;;;;23.30;11.10;;;;;;;22.60;43.01;100538.65;108041;1253;60297;-66
2023/04/08 05:13:55;;;;;;;20.70;10.10;;;;;;;22.61;42.91;100540.91;108044;1255;73307;-65
2023/04/08 05:16:23;;;;;;;18.70;9.80;;;;;;;22.58;42.91;100541.15;108017;1253;63170;-66
2023/04/08 05:18:49;;;;;;;22.50;10.30;;;;;;;22.77;42.71;100537.27;108065;1254;59206;-66
2023/04/08 05:21:18;;;;;;;26.50;10.10;;;;;;;23.01;42.09;100538.91;108027;1254;75199;-67
2023/04/08 05:23:46;;;;;;;22.80;9.90;;;;;;;23.23;41.64;100536.71;107995;1254;70371;-67
2023/04/08 05:26:13;;;;;;;18.10;8.50;;;;;;;23.20;41.41;100534.77;108018;1254;72690;-66
2023/04/08 05:28:52;;;;;;;16.30;8.90;;;;;;;23.20;41.46;100535.73;108090;1253;62759;-67
2023/04/08 05:31:19;;;;;;;19.70;9.00;;;;;;;23.32;41.31;100531.84;108029;1254;61499;-66
2023/04/08 05:33:46;;;;;;;15.80;8.90;;;;;;;23.57;41.13;100529.54;108058;1254;74275;-66
2023/04/08 05:36:17;;;;;;;19.30;9.60;;;;;;;23.94;40.45;100528.34;108073;1254;70158;-67
2023/04/08 05:38:45;;;;;;;19.40;9.00;;;;;;;24.12;40.24;100529.52;108083;1253;73665;-66
2023/04/08 05:41:12;;;;;;;25.80;9.00;;;;;;;23.98;40.44;100530.70;108058;1253;63078;-66
2023/04/08 05:43:38;;;;;;;22.50;9.70;;;;;;;24.29;39.80;100531.27;108001;1253;60532;-67
2023/04/08 05:46:06;;;;;;;24.80;8.30;;;;;;;24.23;39.35;100533.56;108100;1254;60262;-65
2023/04/08 05:48:33;;;;;;;19.80;8.30;;;;;;;24.44;39.26;100531.17;108079;1253;69856;-66
2023/04/08 05:51:02;;;;;;;17.20;7.90;;;;;;;24.55;38.64;100529.30;108099;1253;72938;-64
2023/04/08 05:53:29;;;;;;;21.80;8.60;;;;;;;24.40;38.64;100530.04;108028;1253;62945;-66
2023/04/08 05:55:56;;;;;;;23.90;8.50;;;;;;;24.54;38.70;100529.23;108009;1253;60460;-65
2023/04/08 05:58:24;;;;;;;16.10;7.40;;;;;;;24.86;38.01;100531.93;108024;1254;74003;-65
2023/04/08 06:00:50;;;;;;;21.30;8.10;;;;;;;25.06;37.44;100534.60;108070;1253;69999;-66
2023/04/08 06:03:19;;;;;;;24.40;7.80;;;;;;;24.85;37.89;100535.56;108082;1253;73892;-65
2023/04/08 06:05:47;;;;;;;18.10;8.10;;;;;;;24.78;37.65;100535.12;108106;1253;62764;-65
2023/04/08 06:08:14;;;;;;;23.90;9.10;;;;;;;24.79;37.64;100538.10;108185;1253;60455;-67
2023/04/08 06:10:48;;;;;;;16.90;7.60;;;;;;;24.81;37.69;100539.33;108148;1253;74309;-65
2023/04/08 06:13:19;;;;;;;19.40;8.30;;;;;;;25.00;37.35;100538.93;108098;1253;71021;-67
2023/04/08 06:15:45;;;;;;;21.20;8.20;;;;;;;25.57;36.76;100535.95;108132;1253;71866;-65
2023/04/08 06:18:12;;;;;;;16.20;7.80;;;;;;;25.47;37.04;100538.35;108012;1253;60416;-67
2023/04/08 06:20:40;;;;;;;20.30;7.90;;;;;;;25.58;36.52;100535.92;108011;1253;60378;-66
2023/04/08 06:23:07;;;;;;;15.40;7.30;;;;;;;25.75;36.06;100537.85;108009;1256;72975;-68
2023/04/08 06:25:34;;;;;;;23.40;7.90;;;;;;;26.05;35.83;100541.94;108067;1253;71555;-67
2023/04/08 06:28:00;;;;;;;22.40;6.20;;;;;;;26.24;35.16;100543.36;108033;1253;60417;-67
2023/04/08 06:30:32;;;;;;;16.20;6.30;;;;;;;26.32;34.88;100544.34;107970;1253;254789;-68
2023/04/08 06:34:47;;;;;;;20.50;7.30;;;;;;;23.06;40.21;100556.48;104957;1289;600987;-66
2023/04/08 06:37:16;;;;;;;23.60;7.00;;;;;;;24.78;37.77;100550.61;107355;1263;59558;-66
2023/04/08 06:39:44;;;;;;;27.80;6.60;;;;;;;25.16;36.67;100550.56;107362;1263;61558;-67
2023/04/08 06:42:12;;;;;;;17.00;6.30;;;;;;;25.18;36.43;100553.73;107595;1260;71745;-66
2023/04/08 06:44:59;;;;;;;19.70;7.30;;;;;;;25.45;35.92;100559.98;107469;1260;71430;-67
2023/04/08 06:47:27;;;;;;;24.00;6.60;;;;;;;25.45;35.74;100562.98;107526;1257;124220;-68
2023/04/08 06:49:56;;;;;;;26.10;8.60;;;;;;;25.53;35.82;100563.29;107836;1257;62206;-67
2023/04/08 06:52:26;;;;;;;;;;;;;;;25.26;36.17;100564.73;107866;1257;61210;-65
2023/04/08 06:54:55;;;;;;;21.30;5.60;;;;;;;25.51;35.73;100562.08;107874;1257;70954;-66
2023/04/08 06:57:23;;;;;;;21.60;7.10;;;;;;;25.63;35.60;100562.60;107795;1260;70477;-67
2023/04/08 06:59:52;;;;;;;21.40;6.20;;;;;;;25.86;35.28;100562.05;107840;1258;74114;-67
2023/04/08 07:02:21;;;;;;;19.90;6.60;;;;;;;25.71;35.65;100562.21;107713;1259;61502;-68
2023/04/08 07:04:49;;;;;;;16.30;6.50;;;;;;;26.03;35.14;100568.20;107730;1260;59601;-67
2023/04/08 07:07:17;;;;;;;20.90;6.50;;;;;;;26.28;34.76;100567.81;107716;1259;73124;-67
2023/04/08 07:09:47;;;;;;;20.70;6.50;;;;;;;26.58;34.71;100571.17;107763;1258;71565;-67
2023/04/08 07:12:16;;;;;;;23.70;9.20;;;;;;;26.79;34.35;100571.48;107689;1258;72246;-67
2023/04/08 07:14:44;;;;;;;26.60;10.10;;;;;;;27.12;33.90;100577.64;107687;1258;60153;-67
2023/04/08 07:17:14;;;;;;;15.70;6.40;;;;;;;27.47;33.36;100576.30;107659;1260;61383;-67
2023/04/08 07:19:44;;;;;;;25.10;7.30;;;;;;;27.87;32.68;100576.54;107621;1260;72305;-67
2023/04/08 07:22:12;;;;;;;21.30;6.20;;;;;;;28.03;32.36;100577.37;107614;1262;70375;-67
2023/04/08 07:24:42;;;;;;;18.20;5.30;;;;;;;28.27;31.92;100571.30;107708;1260;74344;-66
2023/04/08 07:27:10;;;;;;;22.90;5.80;;;;;;;28.66;30.99;100574.88;107880;1259;59512;-66
2023/04/08 07:29:38;;;;;;;24.50;5.70;;;;;;;28.46;31.30;100577.42;107920;1256;61101;-67
2023/04/08 07:32:06;;;;;;;14.00;5.90;;;;;;;28.39;31.53;100578.88;107889;1256;74317;-66
2023/04/08 07:34:35;;;;;;;14.50;5.40;;;;;;;28.29;31.39;100576.38;107877;1256;69231;-66
2023/04/08 07:37:04;;;;;;;18.60;5.80;;;;;;;28.12;31.56;100582.39;107912;1256;72632;-67
2023/04/08 07:39:32;;;;;;;16.50;5.10;;;;;;;27.59;32.19;100586.79;107929;1256;60694;-66
2023/04/08 07:42:01;;;;;;;12.90;5.10;;;;;;;27.89;32.07;100585.14;107924;1256;60536;-66
2023/04/08 07:44:30;;;;;;;17.50;5.00;;;;;;;28.08;31.82;100583.59;107858;1256;73073;-67
2023/04/08 07:46:58;;;;;;;20.00;5.00;;;;;;;28.33;31.08;100583.02;107905;1256;71455;-67
2023/04/08 07:49:26;;;;;;;26.40;4.90;;;;;;;28.65;30.42;100580.91;107850;1256;73438;-67
2023/04/08 07:51:54;;;;;;;29.70;9.10;;;;;;;28.80;30.33;100577.28;107894;1256;60403;-66
2023/04/08 07:54:23;;;;;;;16.10;5.90;;;;;;;29.13;30.03;100580.39;107930;1256;61280;-69
2023/04/08 07:56:51;;;;;;;15.00;4.60;;;;;;;29.24;29.56;100578.52;107878;1259;72599;-67
2023/04/08 07:59:20;;;;;;;20.00;4.80;;;;;;;29.38;29.64;100575.96;107885;1256;71480;-67
2023/04/08 08:01:49;;;;;;;16.10;5.00;;;;;;;29.47;29.63;100572.17;108059;1253;73074;-67
2023/04/08 08:04:17;;;;;;;20.40;5.00;;;;;;;29.66;29.18;100571.95;108079;1253;60101;-66
2023/04/08 08:06:51;;;;;;;14.50;4.50;;;;;;;30.07;28.92;100568.67;108159;1257;61177;-66
2023/04/08 08:09:20;;;;;;;22.00;5.50;;;;;;;29.77;29.10;100571.05;108164;1253;74498;-67
2023/04/08 08:11:48;;;;;;;15.10;5.30;;;;;;;29.67;29.34;100571.46;108184;1257;69116;-67
2023/04/08 08:14:18;;;;;;;18.40;5.70;;;;;;;29.74;29.36;100572.13;108124;1253;72820;-67
2023/04/08 08:16:48;;;;;;;16.10;4.60;;;;;;;30.25;28.58;100573.02;108070;1253;59616;-66
2023/04/08 08:19:16;;;;;;;11.90;4.30;;;;;;;30.52;28.55;100572.07;108059;1253;59257;-68
2023/04/08 08:21:49;;;;;;;16.10;4.80;;;;;;;31.04;28.08;100571.14;108092;1253;73574;-68
2023/04/08 08:24:17;;;;;;;21.30;4.70;;;;;;;31.76;27.38;100566.81;108127;1253;71803;-68
2023/04/08 08:26:47;;;;;;;18.70;4.60;;;;;;;32.24;26.81;100560.48;108114;1253;74143;-68
2023/04/08 08:29:16;;;;;;;17.40;6.60;;;;;;;32.61;25.81;100561.95;108132;1253;60392;-67
2023/04/08 08:31:44;;;;;;;17.30;4.90;;;;;;;32.89;25.07;100564.48;108120;1253;61255;-67
2023/04/08 08:34:12;;;;;;;27.50;6.10;;;;;;;32.77;24.75;100559.60;108154;1253;73876;-68
2023/04/08 08:36:42;;;;;;;17.90;5.50;;;;;;;33.02;24.77;100559.23;108195;1253;71323;-69
2023/04/08 08:39:10;;;;;;;23.10;6.30;;;;;;;33.11;24.47;100557.02;108164;1257;73887;-68
2023/04/08 08:41:39;;;;;;;19.10;5.10;;;;;;;32.91;24.78;100554.64;108118;1253;60022;-66
2023/04/08 08:44:08;;;;;;;19.60;5.60;;;;;;;32.62;24.89;100564.20;108103;1253;61049;-67
2023/04/08 08:46:36;;;;;;;20.40;6.30;;;;;;;32.82;24.82;100562.12;107880;1260;71973;-66
2023/04/08 08:49:04;;;;;;;16.50;5.10;;;;;;;33.03;24.74;100553.52;108114;1257;70795;-68
2023/04/08 08:51:33;;;;;;;22.60;5.60;;;;;;;32.91;24.45;100552.84;108100;1253;72609;-68
2023/04/08 08:54:03;;;;;;;15.70;5.50;;;;;;;33.19;24.11;100554.07;108081;1253;59615;-68
2023/04/08 08:56:34;;;;;;;32.30;9.30;;;;;;;33.39;24.23;100554.70;108100;1253;61421;-67
2023/04/08 08:59:04;;;;;;;31.60;7.60;;;;;;;33.79;23.93;100553.29;108113;1254;74323;-67
2023/04/08 09:01:34;;;;;;;29.20;7.50;;;;;;;33.91;23.30;100554.98;108109;1253;62521;-68
2023/04/08 09:04:12;;;;;;;16.40;4.70;;;;;;;33.94;22.63;100559.03;108162;1253;72653;-67
2023/04/08 09:06:42;;;;;;;18.20;5.00;;;;;;;34.01;22.66;100562.57;108116;1257;61248;-68
2023/04/08 09:09:10;;;;;;;15.70;5.10;;;;;;;33.86;22.83;100562.24;108140;1253;61477;-68
2023/04/08 09:11:39;;;;;;;20.80;5.70;;;;;;;33.98;22.91;100561.89;108076;1253;64272;-67
2023/04/08 09:14:21;;;;;;;17.50;5.50;;;;;;;33.98;22.86;100561.08;108151;1253;71108;-68
2023/04/08 09:16:50;;;;;;;13.50;4.90;;;;;;;33.59;23.10;100559.65;108102;1257;73545;-69
2023/04/08 09:19:19;;;;;;;17.60;5.90;;;;;;;33.45;23.38;100558.75;108130;1253;60156;-68
2023/04/08 09:22:08;;;;;;;22.50;6.90;;;;;;;33.75;23.20;100558.90;108143;1253;60455;-67
2023/04/08 09:24:37;;;;;;;19.20;6.80;;;;;;;34.17;22.97;100556.17;108124;1253;73890;-68
2023/04/08 09:27:05;;;;;;;21.80;7.00;;;;;;;34.42;22.66;100555.11;108007;1253;71427;-67
2023/04/08 09:29:36;;;;;;;18.20;6.00;;;;;;;34.34;23.26;100554.01;108165;1253;73682;-70
2023/04/08 09:32:07;;;;;;;16.80;6.30;;;;;;;34.49;23.21;100559.84;108155;1253;59612;-67
2023/04/08 09:34:36;;;;;;;17.70;6.10;;;;;;;34.39;22.93;100562.27;108204;1253;61409;-67
2023/04/08 09:37:05;;;;;;;15.10;5.30;;;;;;;33.83;22.98;100562.76;108102;1253;73762;-68
2023/04/08 09:39:37;;;;;;;15.20;6.10;;;;;;;33.25;24.04;100568.67;108112;1253;69934;-68
2023/04/08 09:42:05;;;;;;;18.80;5.60;;;;;;;33.17;24.28;100568.67;108127;1253;73643;-68
2023/04/08 09:44:33;;;;;;;18.40;6.30;;;;;;;33.42;24.02;100569.52;107970;1254;59497;-65
2023/04/08 09:47:10;;;;;;;16.20;5.20;;;;;;;33.36;24.03;100567.30;107888;1253;61613;-70
2023/04/08 09:49:46;;;;;;;13.60;5.90;;;;;;;33.11;24.17;100565.92;108119;1253;73087;-68
2023/04/08 09:52:20;;;;;;;15.20;5.40;;;;;;;32.98;24.32;100563.61;107944;1253;71134;-66
2023/04/08 09:55:03;;;;;;;17.80;4.90;;;;;;;32.78;24.00;100567.36;108120;1253;71188;-67
2023/04/08 09:58:03;;;;;;;15.30;4.50;;;;;;;32.75;23.72;100564.62;108109;1253;59714;-67
2023/04/08 10:00:36;;;;;;;19.20;4.90;;;;;;;33.05;23.77;100570.13;108104;1253;61280;-66
2023/04/08 10:03:10;;;;;;;17.90;4.90;;;;;;;33.07;23.78;100572.55;108087;1257;72313;-69
2023/04/08 10:05:41;;;;;;;16.60;5.10;;;;;;;32.87;24.30;100576.33;107885;1253;70415;-66
2023/04/08 10:08:09;;;;;;;14.50;4.90;;;;;;;33.24;23.70;100571.08;108099;1253;72380;-64
2023/04/08 10:10:38;;;;;;;16.60;4.50;;;;;;;33.51;23.15;100573.38;107911;1253;59853;-66
2023/04/08 10:13:13;;;;;;;15.90;4.20;;;;;;;33.68;22.32;100572.75;108145;1253;61367;-67
2023/04/08 10:15:42;;;;;;;13.90;4.70;;;;;;;33.36;23.17;100573.30;108123;1253;73862;-66
2023/04/08 10:18:10;;;;;;;13.80;4.20;;;;;;;33.22;23.12;100577.84;108047;1253;70525;-67
2023/04/08 10:20:41;;;;;;;18.40;4.30;;;;;;;32.81;22.72;100577.89;108085;1253;73651;-68
2023/04/08 10:23:12;;;;;;;17.60;4.40;;;;;;;32.51;23.10;100579.34;108141;1253;61398;-67
2023/04/08 10:25:41;;;;;;;12.90;4.40;;;;;;;32.13;23.58;100581.61;108193;1253;61589;-68
2023/04/08 10:28:18;;;;;;;17.90;4.40;;;;;;;31.46;24.02;100585.30;108071;1253;72776;-67
2023/04/08 10:30:47;;;;;;;14.80;3.90;;;;;;;31.40;23.83;100582.91;108048;1253;71541;-67
2023/04/08 10:33:21;;;;;;;12.40;4.20;;;;;;;31.53;23.94;100585.61;108079;1253;72595;-67
2023/04/08 10:35:54;;;;;;;13.50;4.40;;;;;;;31.54;23.57;100590.29;108078;1253;61283;-66
2023/04/08 10:38:22;;;;;;;14.40;4.40;;;;;;;30.90;24.26;100582.27;108123;1253;60768;-67
2023/04/08 10:40:51;;;;;;;13.00;4.30;;;;;;;30.87;24.12;100586.53;108128;1253;74306;-67
2023/04/08 10:43:19;;;;;;;14.30;4.20;;;;;;;30.47;24.61;100585.46;108161;1257;71882;-67
2023/04/08 10:45:50;;;;;;;11.40;4.10;;;;;;;30.88;24.60;100580.85;108164;1257;71923;-67
2023/04/08 10:48:19;;;;;;;13.60;4.10;;;;;;;31.24;24.22;100582.45;108072;1253;61172;-68
2023/04/08 10:51:03;;;;;;;11.30;4.60;;;;;;;31.46;24.45;100579.34;108109;1253;61261;-67
2023/04/08 10:53:34;;;;;;;13.50;4.60;;;;;;;31.21;24.84;100579.30;108090;1253;73379;-68
2023/04/08 10:56:06;;;;;;;12.80;3.30;;;;;;;31.12;24.79;100579.08;108229;1253;70321;-68
2023/04/08 10:58:55;;;;;;;20.50;5.00;;;;;;;31.35;24.86;100577.67;108087;1253;72981;-67
2023/04/08 11:01:23;;;;;;;11.20;4.30;;;;;;;31.60;24.82;100573.48;108201;1253;60471;-68
2023/04/08 11:03:51;;;;;;;18.80;5.00;;;;;;;31.79;24.71;100571.20;108090;1253;61291;-67
2023/04/08 11:06:22;;;;;;;13.40;4.80;;;;;;;32.30;24.55;100561.09;108100;1253;74377;-68
2023/04/08 11:08:51;;;;;;;17.60;4.30;;;;;;;32.85;23.84;100556.05;108110;1253;71291;-67
2023/04/08 11:11:20;;;;;;;18.60;4.40;;;;;;;32.93;23.64;100556.98;108154;1253;72860;-67
2023/04/08 11:13:51;;;;;;;17.70;4.80;;;;;;;33.02;23.70;100551.12;108182;1253;61562;-68
2023/04/08 11:16:21;;;;;;;24.00;5.10;;;;;;;33.07;23.10;100552.94;108212;1253;60417;-67
2023/04/08 11:18:50;;;;;;;18.90;4.70;;;;;;;33.08;23.01;100547.75;108073;1253;75072;-68